createdAt,value
2018-06-28T00:01:46.895Z,13.50
2018-06-28T00:07:17.004Z,13.50
2018-06-28T00:12:47.318Z,13.50
2018-06-28T00:18:17.139Z,13.40
2018-06-28T00:23:47.219Z,13.40
2018-06-28T00:29:17.261Z,13.30
2018-06-28T00:34:47.290Z,13.30
2018-06-28T00:40:17.075Z,13.30
2018-06-28T00:45:47.168Z,13.20
2018-06-28T00:51:16.575Z,13.20
2018-06-28T01:02:16.447Z,13.10
2018-06-28T01:07:46.737Z,13.10
2018-06-28T01:13:17.384Z,13.00
2018-06-28T01:18:47.734Z,12.90
2018-06-28T01:24:17.538Z,12.90
2018-06-28T01:29:47.572Z,12.90
2018-06-28T01:35:18.299Z,12.90
2018-06-28T01:40:48.445Z,12.90
2018-06-28T01:46:18.714Z,12.90
2018-06-28T01:51:48.404Z,12.90
2018-06-28T01:57:18.415Z,12.90
2018-06-28T02:02:47.929Z,12.90
2018-06-28T02:08:17.597Z,12.90
2018-06-28T02:13:47.366Z,12.90
2018-06-28T02:19:17.273Z,12.90
2018-06-28T02:24:46.971Z,12.90
2018-06-28T02:30:16.616Z,12.90
2018-06-28T02:35:46.160Z,13.00
2018-06-28T02:41:15.793Z,13.00
2018-06-28T02:46:46.117Z,13.10
2018-06-28T02:52:15.578Z,13.10
2018-06-28T02:57:45.757Z,13.10
2018-06-28T03:03:15.775Z,13.10
2018-06-28T03:08:46.198Z,13.10
2018-06-28T03:19:45.739Z,13.20
2018-06-28T03:25:15.814Z,13.20
2018-06-28T03:30:45.658Z,13.20
2018-06-28T03:36:15.470Z,13.30
2018-06-28T03:41:45.312Z,13.30
2018-06-28T03:47:15.197Z,13.30
2018-06-28T03:52:45.181Z,13.40
2018-06-28T03:58:15.111Z,13.40
2018-06-28T04:09:15.244Z,13.40
2018-06-28T04:14:46.067Z,13.40
2018-06-28T04:20:16.573Z,13.50
2018-06-28T04:25:47.124Z,13.50
2018-06-28T04:31:16.932Z,13.60
2018-06-28T04:36:47.800Z,13.60
2018-06-28T04:42:18.316Z,13.60
2018-06-28T04:47:48.021Z,13.60
2018-06-28T04:53:17.644Z,13.60
2018-06-28T04:58:47.565Z,13.60
2018-06-28T05:04:17.265Z,13.60
2018-06-28T05:09:47.496Z,13.60
2018-06-28T05:15:17.561Z,13.70
2018-06-28T05:20:47.670Z,13.70
2018-06-28T05:26:17.492Z,13.70
2018-06-28T05:31:47.576Z,13.70
2018-06-28T05:37:17.283Z,13.70
2018-06-28T05:42:46.980Z,13.70
2018-06-28T05:48:16.714Z,13.70
2018-06-28T05:53:46.993Z,13.70
2018-06-28T05:59:17.472Z,13.80
2018-06-28T06:04:47.874Z,13.90
2018-06-28T06:10:17.614Z,13.90
2018-06-28T06:15:47.573Z,14.00
2018-06-28T06:21:17.500Z,14.00
2018-06-28T06:26:47.750Z,14.00
2018-06-28T06:32:17.894Z,14.00
2018-06-28T06:37:47.580Z,14.00
2018-06-28T06:43:17.589Z,13.90
2018-06-28T06:48:48.224Z,13.90
2018-06-28T06:54:17.715Z,13.80
2018-06-28T06:59:47.381Z,13.80
2018-06-28T07:05:17.181Z,13.80
2018-06-28T07:10:47.109Z,13.80
2018-06-28T07:16:17.195Z,13.90
2018-06-28T07:21:47.376Z,14.00
2018-06-28T07:27:17.848Z,14.10
2018-06-28T07:32:47.577Z,14.20
2018-06-28T07:38:17.976Z,14.20
2018-06-28T07:43:47.952Z,14.10
2018-06-28T07:49:17.805Z,14.20
2018-06-28T07:54:47.805Z,14.20
2018-06-28T08:00:18.695Z,14.20
2018-06-28T08:05:48.365Z,14.20
2018-06-28T08:11:17.831Z,14.40
2018-06-28T08:16:48.177Z,14.40
2018-06-28T08:22:18.222Z,14.40
2018-06-28T08:27:48.317Z,14.40
2018-06-28T08:33:19.162Z,14.50
2018-06-28T08:38:48.920Z,14.50
2018-06-28T08:44:19.034Z,14.60
2018-06-28T08:49:48.608Z,14.80
2018-06-28T08:55:19.101Z,14.90
2018-06-28T09:00:48.952Z,14.90
2018-06-28T09:06:19.002Z,14.90
2018-06-28T09:11:48.559Z,15.00
2018-06-28T09:17:18.524Z,15.20
2018-06-28T09:22:48.577Z,15.30
2018-06-28T09:28:18.591Z,15.60
2018-06-28T09:33:48.649Z,15.80
2018-06-28T09:39:18.605Z,15.90
2018-06-28T09:44:48.813Z,16.10
2018-06-28T09:50:18.551Z,16.10
2018-06-28T09:55:48.140Z,16.10
2018-06-28T10:01:18.460Z,16.10
2018-06-28T10:06:48.371Z,16.10
2018-06-28T10:12:18.295Z,16.30
2018-06-28T10:17:48.204Z,16.30
2018-06-28T10:28:47.927Z,16.40
2018-06-28T10:34:17.949Z,16.40
2018-06-28T10:39:47.601Z,16.30
2018-06-28T10:45:17.441Z,16.30
2018-06-28T10:50:47.097Z,16.30
2018-06-28T10:56:17.135Z,16.40
2018-06-28T11:01:47.334Z,16.50
2018-06-28T11:07:17.096Z,16.60
2018-06-28T11:12:46.647Z,16.60
2018-06-28T11:18:17.011Z,16.50
2018-06-28T11:23:47.663Z,16.30
2018-06-28T11:29:17.207Z,16.20
2018-06-28T11:34:46.625Z,16.20
2018-06-28T11:40:16.341Z,16.20
2018-06-28T11:45:46.339Z,16.20
2018-06-28T11:51:16.376Z,16.10
2018-06-28T11:56:46.876Z,16.00
2018-06-28T12:02:17.365Z,15.90
2018-06-28T12:07:46.907Z,15.90
2018-06-28T12:13:16.788Z,15.90
2018-06-28T12:18:47.407Z,15.80
2018-06-28T12:24:18.075Z,15.80
2018-06-28T12:29:47.772Z,15.90
2018-06-28T12:35:18.064Z,15.80
2018-06-28T12:40:48.344Z,15.60
2018-06-28T12:52:04.447Z,15.50
2018-06-28T12:57:33.639Z,15.40
2018-06-28T13:03:02.856Z,15.40
2018-06-28T13:08:32.035Z,15.40
2018-06-28T13:14:01.232Z,15.30
2018-06-28T13:19:30.394Z,15.40
2018-06-28T13:24:59.643Z,15.40
2018-06-28T13:30:28.877Z,15.40
2018-06-28T13:35:58.085Z,15.30
2018-06-28T13:41:27.647Z,15.30
2018-06-28T13:46:56.688Z,15.30
2018-06-28T13:57:55.218Z,15.30
2018-06-28T14:03:26.192Z,15.40
2018-06-28T14:08:55.694Z,15.40
2018-06-28T14:14:25.095Z,15.40
2018-06-28T14:19:54.486Z,15.40
2018-06-28T14:25:24.465Z,15.40
2018-06-28T14:30:53.888Z,15.40
2018-06-28T14:36:23.581Z,15.30
2018-06-28T14:41:53.516Z,15.30
2018-06-28T14:47:23.052Z,15.30
2018-06-28T14:52:52.819Z,15.30
2018-06-28T14:58:22.565Z,15.30
2018-06-28T15:03:53.320Z,15.30
2018-06-28T15:09:22.895Z,15.30
2018-06-28T15:14:52.724Z,15.20
2018-06-28T15:20:22.956Z,15.20
2018-06-28T15:25:53.014Z,15.20
2018-06-28T15:31:22.727Z,15.20
2018-06-28T15:36:52.525Z,15.20
2018-06-28T15:42:22.210Z,15.20
2018-06-28T15:47:55.075Z,15.20
2018-06-28T15:53:24.569Z,15.20
2018-06-28T15:58:54.123Z,15.20
2018-06-28T16:04:24.085Z,15.20
2018-06-28T16:09:53.832Z,15.20
2018-06-28T16:15:23.633Z,15.10
2018-06-28T16:20:53.470Z,15.10
2018-06-28T16:26:22.994Z,15.10
2018-06-28T16:31:53.618Z,15.10
2018-06-28T16:37:24.845Z,15.00
2018-06-28T16:42:54.930Z,15.00
2018-06-28T16:48:24.280Z,15.00
2018-06-28T16:53:54.096Z,14.90
2018-06-28T16:59:24.009Z,14.90
2018-06-28T17:04:53.604Z,14.90
2018-06-28T17:10:23.013Z,14.90
2018-06-28T17:15:52.790Z,14.90
2018-06-28T17:21:22.630Z,14.90
2018-06-28T17:26:52.409Z,14.80
2018-06-28T17:32:22.832Z,14.80
2018-06-28T17:37:52.955Z,14.80
2018-06-28T17:43:22.860Z,14.80
2018-06-28T17:48:53.256Z,14.80
2018-06-28T17:54:23.140Z,14.90
2018-06-28T17:59:53.249Z,14.90
2018-06-28T18:05:23.350Z,14.90
2018-06-28T18:10:53.670Z,14.90
2018-06-28T18:16:23.984Z,14.80
2018-06-28T18:21:53.727Z,14.90
2018-06-28T18:27:23.294Z,14.90
2018-06-28T18:32:53.552Z,14.90
2018-06-28T18:38:23.810Z,14.90
2018-06-28T18:43:53.570Z,14.90
2018-06-28T18:49:23.919Z,14.90
2018-06-28T18:54:53.817Z,14.90
2018-06-28T19:00:23.039Z,14.90
2018-06-28T19:05:52.339Z,14.90
2018-06-28T19:11:22.329Z,14.90
2018-06-28T19:16:56.179Z,14.90
2018-06-28T19:22:30.601Z,14.90
2018-06-28T19:27:59.839Z,14.90
2018-06-28T19:33:29.130Z,14.90
2018-06-28T19:39:03.517Z,14.90
2018-06-28T19:44:32.691Z,14.90
2018-06-28T19:50:07.292Z,14.90
2018-06-28T19:55:36.509Z,14.90
2018-06-28T20:01:10.867Z,14.90
2018-06-28T20:06:40.913Z,14.90
2018-06-28T20:12:15.455Z,14.90
2018-06-28T20:18:01.939Z,14.90
2018-06-28T20:23:31.199Z,15.00
2018-06-28T20:29:05.739Z,14.90
2018-06-28T20:34:34.991Z,15.00
2018-06-28T20:40:04.232Z,15.00
2018-06-28T20:45:33.459Z,14.90
2018-06-28T20:51:02.807Z,14.90
2018-06-28T20:56:31.889Z,15.00
2018-06-28T21:02:01.079Z,14.90
2018-06-28T21:07:30.319Z,15.00
2018-06-28T21:12:59.671Z,15.00
2018-06-28T21:18:28.871Z,15.00
2018-06-28T21:23:58.118Z,15.00
2018-06-28T21:29:27.359Z,15.00
2018-06-28T21:34:56.601Z,15.00
2018-06-28T21:40:25.839Z,15.00
2018-06-28T21:45:55.126Z,15.00
2018-06-28T21:51:24.327Z,15.00
2018-06-28T21:56:53.564Z,14.90
2018-06-28T22:02:22.777Z,15.00
2018-06-28T22:07:52.022Z,15.00
2018-06-28T22:13:21.208Z,15.00
2018-06-28T22:18:50.421Z,15.00
2018-06-28T22:24:19.715Z,15.00
2018-06-28T22:29:48.974Z,15.00
2018-06-28T22:35:18.217Z,15.00
2018-06-28T22:40:47.513Z,15.00
2018-06-28T22:46:16.782Z,15.00
2018-06-28T22:51:46.079Z,15.10
2018-06-28T22:57:15.373Z,15.10
2018-06-28T23:02:44.682Z,15.10
2018-06-28T23:08:14.001Z,15.10
2018-06-28T23:13:43.417Z,15.10
2018-06-28T23:19:12.644Z,15.10
2018-06-28T23:24:41.851Z,15.10
2018-06-28T23:30:11.084Z,15.10
2018-06-28T23:35:40.353Z,15.20
2018-06-28T23:41:09.605Z,15.20
2018-06-28T23:46:38.852Z,15.20
2018-06-28T23:52:08.056Z,15.20
2018-06-28T23:57:37.379Z,15.20
